Station Historical Data
Daily Summary for March 25, 2012 Units:  Metric    English   Both
« Previous Day
Next Day »
Daily Weekly Monthly Yearly Custom
  High: Low: Average:
Temperature: 23.1 °C 7.6 °C 15.1 °C
Dew Point: 14.2 °C 6.9 °C 10.8 °C
Humidity: 96% 52% 78%
Wind Speed: 16.1km/h 0km/h 4km/h
Wind Gust: 19.3km/h - -
Wind- - WSW
Pressure: 1015.8 hPa 1012.1 hPa -
Precipitation: 0 mm    
Historical Graphs
 
 
Tabular Data for March 25, 2012
Time Temperature Dew Point Pressure Wind Wind Speed Wind Gust Humidity Rainfall Rate (Hourly) Conditions
00:00 10.5 °C 9.1 °C 1012.4 hPa Calm     91% 0 mm
00:01 10.5 °C 9.1 °C 1012.4 hPa Calm     91% 0 mm
00:06 10.3 °C 8.9 °C 1012.4 hPa Calm     91% 0 mm
00:11 10.1 °C 8.7 °C 1012.4 hPa Calm     91% 0 mm
00:16 10.1 °C 8.8 °C 1012.4 hPa Calm     92% 0 mm
00:21 9.9 °C 8.9 °C 1012.4 hPa Calm     93% 0 mm
00:27 9.9 °C 8.9 °C 1012.4 hPa Calm     93% 0 mm
00:32 9.9 °C 9 °C 1012.4 hPa Calm     94% 0 mm
00:37 9.9 °C 9 °C 1012.4 hPa Calm     94% 0 mm
00:42 9.8 °C 8.9 °C 1012.4 hPa Calm     94% 0 mm
00:47 9.7 °C 8.8 °C 1012.4 hPa Calm     94% 0 mm
00:52 9.5 °C 8.6 °C 1012.4 hPa Calm     94% 0 mm
00:57 9.2 °C 8.3 °C 1012.4 hPa Calm     94% 0 mm
01:00 9.2 °C 8.4 °C 1012.4 hPa Calm     95% 0 mm
01:02 9.2 °C 8.4 °C 1012.4 hPa Calm     95% 0 mm
01:07 9.2 °C 8.4 °C 1012.4 hPa Calm     95% 0 mm
01:12 9.2 °C 8.4 °C 1012.4 hPa Calm     95% 0 mm
01:17 9.1 °C 8.3 °C 1012.4 hPa Calm     95% 0 mm
01:22 9.1 °C 8.3 °C 1012.4 hPa Calm     95% 0 mm
01:27 9.2 °C 8.4 °C 1012.4 hPa Calm     95% 0 mm
01:30 9.2 °C 8.4 °C 1012.4 hPa Calm     95% 0 mm
01:32 9.2 °C 8.4 °C 1012.4 hPa Calm     95% 0 mm
01:38 9.2 °C 8.6 °C 1012.4 hPa Calm     96% 0 mm
01:43 9.1 °C 8.3 °C 1012.4 hPa Calm     95% 0 mm
01:48 8.9 °C 8.2 °C 1012.4 hPa Calm     95% 0 mm
01:53 8.7 °C 7.9 °C 1012.4 hPa Calm     95% 0 mm
01:58 8.5 °C 7.7 °C 1012.4 hPa Calm     95% 0 mm
02:00 8.4 °C 7.6 °C 1012.4 hPa Calm     95% 0 mm
02:03 8.4 °C 7.6 °C 1012.4 hPa Calm     95% 0 mm
02:08 8.5 °C 7.9 °C 1012.4 hPa Calm     96% 0 mm
02:13 8.7 °C 8.1 °C 1012.4 hPa Calm     96% 0 mm
02:18 8.9 °C 8.3 °C 1012.4 hPa Calm     96% 0 mm
02:23 8.9 °C 8.3 °C 1012.4 hPa Calm     96% 0 mm
02:28 8.9 °C 8.3 °C 1012.4 hPa Calm   1.6 km/h 96% 0 mm
02:30 8.9 °C 8.3 °C 1012.4 hPa Calm     96% 0 mm
02:33 8.9 °C 8.3 °C 1012.4 hPa Calm     96% 0 mm
02:38 9 °C 8.4 °C 1012.8 hPa Calm     96% 0 mm
02:43 8.9 °C 8.3 °C 1012.8 hPa Calm     96% 0 mm
02:48 8.7 °C 8.1 °C 1012.8 hPa Calm     96% 0 mm
02:53 8.7 °C 8.1 °C 1012.8 hPa Calm     96% 0 mm
02:58 8.7 °C 8.1 °C 1012.8 hPa Calm     96% 0 mm
03:00 8.8 °C 8.2 °C 1012.8 hPa Calm     96% 0 mm
03:03 8.9 °C 8.3 °C 1012.8 hPa Calm     96% 0 mm
03:08 8.9 °C 8.3 °C 1012.8 hPa Calm     96% 0 mm
03:13 9.1 °C 8.5 °C 1012.8 hPa Calm     96% 0 mm
03:18 9.3 °C 8.7 °C 1012.4 hPa NNW 1.6 km/h 1.6 km/h 96% 0 mm
03:23 9.4 °C 8.8 °C 1012.4 hPa Calm   1.6 km/h 96% 0 mm
03:28 9.3 °C 8.7 °C 1012.4 hPa Calm   1.6 km/h 96% 0 mm
03:30 9.3 °C 8.7 °C 1012.4 hPa Calm   1.6 km/h 96% 0 mm
03:33 9.2 °C 8.6 °C 1012.4 hPa Calm     96% 0 mm
03:38 9.2 °C 8.6 °C 1012.4 hPa Calm     96% 0 mm
03:44 9 °C 8.4 °C 1012.4 hPa Calm     96% 0 mm
03:49 8.8 °C 8.2 °C 1012.4 hPa Calm     96% 0 mm
03:54 8.6 °C 8 °C 1012.4 hPa Calm     96% 0 mm
03:59 8.6 °C 8 °C 1012.4 hPa Calm     96% 0 mm
04:00 8.6 °C 7.9 °C 1012.4 hPa Calm     96% 0 mm
04:04 8.6 °C 8 °C 1012.4 hPa Calm     96% 0 mm
04:09 8.7 °C 8.1 °C 1012.4 hPa Calm     96% 0 mm
04:14 8.6 °C 8 °C 1012.4 hPa Calm     96% 0 mm
04:19 8.4 °C 7.8 °C 1012.4 hPa NNW 1.6 km/h 1.6 km/h 96% 0 mm
04:24 8.4 °C 7.8 °C 1012.4 hPa Calm   1.6 km/h 96% 0 mm
04:29 8.3 °C 7.7 °C 1012.4 hPa Calm     96% 0 mm
04:30 8.3 °C 7.7 °C 1012.4 hPa Calm     96% 0 mm
04:34 8.2 °C 7.6 °C 1012.4 hPa Calm     96% 0 mm
04:39 8.2 °C 7.6 °C 1012.1 hPa Calm     96% 0 mm
04:44 8.3 °C 7.7 °C 1012.4 hPa Calm     96% 0 mm
04:49 8.3 °C 7.7 °C 1012.4 hPa Calm     96% 0 mm
04:54 7.9 °C 7.3 °C 1012.4 hPa Calm     96% 0 mm
04:59 7.6 °C 6.9 °C 1012.4 hPa Calm     96% 0 mm
05:00 7.6 °C 6.9 °C 1012.4 hPa Calm     96% 0 mm
05:05 7.8 °C 7.2 °C 1012.4 hPa Calm     96% 0 mm
05:10 7.8 °C 7.2 °C 1012.8 hPa Calm     96% 0 mm
05:15 7.8 °C 7.2 °C 1012.8 hPa Calm     96% 0 mm
05:20 7.9 °C 7.3 °C 1012.8 hPa Calm     96% 0 mm
05:25 8 °C 7.4 °C 1012.8 hPa Calm     96% 0 mm
05:30 8.1 °C 7.4 °C 1012.8 hPa Calm     96% 0 mm
05:35 8.2 °C 7.6 °C 1012.8 hPa Calm     96% 0 mm
05:40 8.1 °C 7.4 °C 1012.8 hPa Calm     96% 0 mm
05:45 7.9 °C 7.3 °C 1012.8 hPa Calm     96% 0 mm
05:47 7.9 °C 7.3 °C 1012.8 hPa Calm     96% 0 mm
05:52 7.9 °C 7.3 °C 1012.8 hPa Calm     96% 0 mm
05:57 8 °C 7.4 °C 1012.8 hPa Calm     96% 0 mm
06:02 8.2 °C 7.6 °C 1012.8 hPa Calm     96% 0 mm
06:07 8.3 °C 7.7 °C 1012.8 hPa Calm     96% 0 mm
06:12 8.4 °C 7.8 °C 1012.8 hPa Calm     96% 0 mm
06:17 8.5 °C 7.9 °C 1012.8 hPa Calm     96% 0 mm
06:22 8.7 °C 8.1 °C 1012.8 hPa Calm     96% 0 mm
06:27 8.8 °C 8.2 °C 1012.8 hPa Calm     96% 0 mm
06:30 8.8 °C 8.2 °C 1012.8 hPa Calm     96% 0 mm
06:32 8.9 °C 8.3 °C 1012.8 hPa Calm     96% 0 mm
06:37 9 °C 8.4 °C 1013.1 hPa Calm     96% 0 mm
06:42 9.1 °C 8.4 °C 1012.8 hPa Calm     96% 0 mm
06:47 9.1 °C 8.5 °C 1013.1 hPa Calm     96% 0 mm
06:52 9.1 °C 8.5 °C 1013.1 hPa Calm     96% 0 mm
06:57 9.1 °C 8.5 °C 1013.1 hPa Calm     96% 0 mm
07:02 9.1 °C 8.5 °C 1013.1 hPa Calm     96% 0 mm
07:12 9.1 °C 8.5 °C 1013.1 hPa Calm     96% 0 mm
07:17 9.2 °C 8.6 °C 1013.1 hPa Calm     96% 0 mm
07:22 9.2 °C 8.6 °C 1013.1 hPa Calm     96% 0 mm
07:27 9.3 °C 8.7 °C 1012.8 hPa Calm     96% 0 mm
07:32 9.5 °C 8.9 °C 1013.1 hPa WSW 1.6 km/h 3.2 km/h 96% 0 mm
07:37 9.6 °C 8.9 °C 1013.1 hPa Calm     96% 0 mm
07:42 9.5 °C 8.9 °C 1013.1 hPa Calm   1.6 km/h 96% 0 mm
07:47 9.5 °C 8.9 °C 1013.1 hPa WSW 1.6 km/h 1.6 km/h 96% 0 mm
07:52 9.5 °C 8.9 °C 1013.4 hPa Calm   1.6 km/h 96% 0 mm
07:54 9.5 °C 8.9 °C 1013.4 hPa Calm   1.6 km/h 96% 0 mm
07:59 9.5 °C 8.9 °C 1013.4 hPa Calm     96% 0 mm
08:04 9.6 °C 8.9 °C 1013.4 hPa Calm   1.6 km/h 96% 0 mm
08:05 9.6 °C 9 °C 1013.4 hPa Calm   1.6 km/h 96% 0 mm
08:10 9.7 °C 9.1 °C 1013.4 hPa Calm     96% 0 mm
08:15 9.9 °C 9.3 °C 1013.8 hPa Calm     96% 0 mm
08:20 10 °C 9.4 °C 1013.8 hPa Calm     96% 0 mm
08:25 10.1 °C 9.5 °C 1013.8 hPa Calm     96% 0 mm
08:30 10.3 °C 9.7 °C 1013.8 hPa Calm     96% 0 mm
08:35 10.4 °C 9.8 °C 1013.8 hPa Calm     96% 0 mm
08:40 10.6 °C 9.8 °C 1013.8 hPa West 1.6 km/h 3.2 km/h 95% 0 mm
08:45 10.8 °C 9.8 °C 1013.8 hPa West 1.6 km/h 1.6 km/h 94% 0 mm
08:46 10.8 °C 9.9 °C 1013.8 hPa West 1.6 km/h 1.6 km/h 94% 0 mm
08:51 10.9 °C 9.9 °C 1013.8 hPa WNW 3.2 km/h 3.2 km/h 93% 0 mm
08:56 11.1 °C 9.9 °C 1014.1 hPa WNW 3.2 km/h 4.8 km/h 93% 0 mm
09:01 11.1 °C 9.9 °C 1013.8 hPa West 3.2 km/h 3.2 km/h 92% 0 mm
09:06 11.4 °C 10.1 °C 1013.8 hPa WNW 1.6 km/h 4.8 km/h 92% 0 mm
09:11 11.6 °C 10.1 °C 1013.8 hPa WNW 3.2 km/h 4.8 km/h 91% 0 mm
09:16 11.7 °C 10 °C 1013.8 hPa NW 3.2 km/h 6.4 km/h 89% 0 mm
09:21 11.9 °C 10.1 °C 1014.1 hPa WNW 3.2 km/h 4.8 km/h 89% 0 mm
09:26 12.2 °C 10.3 °C 1014.1 hPa WNW 3.2 km/h 4.8 km/h 88% 0 mm
09:31 12.6 °C 10.6 °C 1014.1 hPa WNW 6.4 km/h 6.4 km/h 88% 0 mm
09:36 12.7 °C 10.6 °C 1014.1 hPa WNW 3.2 km/h 6.4 km/h 87% 0 mm
09:41 12.8 °C 10.6 °C 1014.1 hPa WNW 3.2 km/h 4.8 km/h 86% 0 mm
09:46 13.1 °C 11 °C 1014.1 hPa WNW 1.6 km/h 3.2 km/h 87% 0 mm
09:51 13.3 °C 11 °C 1014.1 hPa WNW 1.6 km/h 3.2 km/h 86% 0 mm
09:56 13.5 °C 11.1 °C 1014.1 hPa WNW 3.2 km/h 4.8 km/h 85% 0 mm
10:01 13.8 °C 11.1 °C 1014.1 hPa West 1.6 km/h 4.8 km/h 84% 0 mm
10:06 14.1 °C 11.3 °C 1014.4 hPa NW 1.6 km/h 4.8 km/h 83% 0 mm
10:11 14.6 °C 11.9 °C 1014.4 hPa NNE 3.2 km/h 3.2 km/h 84% 0 mm
10:16 14.9 °C 11.6 °C 1014.4 hPa NNW 3.2 km/h 4.8 km/h 80% 0 mm
10:21 15.2 °C 11.6 °C 1014.4 hPa NW 3.2 km/h 6.4 km/h 79% 0 mm
10:26 15.3 °C 11.7 °C 1014.4 hPa NNW 4.8 km/h 4.8 km/h 79% 0 mm
10:32 15.4 °C 11.4 °C 1014.4 hPa NNW 4.8 km/h 4.8 km/h 77% 0 mm
10:37 15.7 °C 11.9 °C 1014.4 hPa NW 6.4 km/h 6.4 km/h 78% 0 mm
10:42 16.1 °C 11.4 °C 1014.4 hPa NW 1.6 km/h 8 km/h 74% 0 mm
10:47 16.4 °C 11.6 °C 1014.4 hPa WNW 3.2 km/h 8 km/h 73% 0 mm
10:52 16.6 °C 11.3 °C 1014.4 hPa WNW 11.3 km/h 11.3 km/h 71% 0 mm
10:57 16.8 °C 11.3 °C 1014.4 hPa NNW 6.4 km/h 9.7 km/h 70% 0 mm
11:02 17.2 °C 12.1 °C 1014.8 hPa NNE 6.4 km/h 8 km/h 72% 0 mm
11:07 17.6 °C 12.5 °C 1014.8 hPa WNW 4.8 km/h 6.4 km/h 72% 0 mm
11:12 17.9 °C 12.8 °C 1014.8 hPa NNE 6.4 km/h 8 km/h 72% 0 mm
11:17 18.1 °C 13 °C 1014.4 hPa WNW 6.4 km/h 9.7 km/h 72% 0 mm
11:22 18.2 °C 12.4 °C 1014.4 hPa WNW 9.7 km/h 14.5 km/h 69% 0 mm
11:27 18.2 °C 12.2 °C 1014.8 hPa NW 4.8 km/h 14.5 km/h 68% 0 mm
11:32 18.4 °C 12.9 °C 1014.4 hPa NW 9.7 km/h 14.5 km/h 70% 0 mm
11:37 18.7 °C 12.9 °C 1014.8 hPa NW 12.9 km/h 16.1 km/h 69% 0 mm
11:42 18.7 °C 12.9 °C 1014.4 hPa NW 9.7 km/h 14.5 km/h 69% 0 mm
11:47 18.9 °C 12.9 °C 1014.4 hPa WSW 16.1 km/h 16.1 km/h 68% 0 mm
11:52 19 °C 13.2 °C 1014.4 hPa NNW 9.7 km/h 12.9 km/h 69% 0 mm
11:57 19.1 °C 12.8 °C 1014.4 hPa NW 9.7 km/h 16.1 km/h 67% 0 mm
12:02 19.2 °C 13.2 °C 1014.4 hPa NW 8 km/h 9.7 km/h 68% 0 mm
12:07 19.3 °C 13.4 °C 1014.4 hPa NW 8 km/h 11.3 km/h 69% 0 mm
12:12 19 °C 12.5 °C 1014.4 hPa WNW 9.7 km/h 14.5 km/h 66% 0 mm
12:17 18.9 °C 13.1 °C 1014.1 hPa WSW 4.8 km/h 8 km/h 69% 0 mm
12:22 19.5 °C 13 °C 1014.1 hPa West 8 km/h 11.3 km/h 66% 0 mm
12:27 19.4 °C 12.7 °C 1014.1 hPa WNW 6.4 km/h 12.9 km/h 65% 0 mm
12:33 19.7 °C 13.9 °C 1014.1 hPa WSW 4.8 km/h 8 km/h 69% 0 mm
12:38 19.8 °C 13 °C 1014.1 hPa NNW 4.8 km/h 4.8 km/h 65% 0 mm
12:40 19.8 °C 13.5 °C 1014.1 hPa NNE 6.4 km/h 8 km/h 67% 0 mm
12:45 20.1 °C 13.7 °C 1014.1 hPa West 4.8 km/h 9.7 km/h 67% 0 mm
12:50 20.3 °C 13.1 °C 1014.1 hPa WNW 4.8 km/h 11.3 km/h 63% 0 mm
12:55 20.3 °C 13.3 °C 1014.1 hPa West 9.7 km/h 12.9 km/h 64% 0 mm
13:01 20.4 °C 13.2 °C 1014.1 hPa NW 4.8 km/h 11.3 km/h 63% 0 mm
13:06 20.7 °C 12.4 °C 1014.1 hPa WSW 8 km/h 9.7 km/h 59% 0 mm
13:11 20.8 °C 13.8 °C 1013.8 hPa West 9.7 km/h 12.9 km/h 64% 0 mm
13:16 20.6 °C 12.8 °C 1013.8 hPa NNW 4.8 km/h 9.7 km/h 61% 0 mm
13:21 20.2 °C 12.9 °C 1013.8 hPa WNW 6.4 km/h 8 km/h 63% 0 mm
13:27 20.6 °C 12.8 °C 1013.8 hPa Calm   11.3 km/h 61% 0 mm
13:32 20.8 °C 13 °C 1013.8 hPa NW 8 km/h 11.3 km/h 61% 0 mm
13:37 21.1 °C 13.8 °C 1013.8 hPa NNW 11.3 km/h 11.3 km/h 63% 0 mm
13:42 20.7 °C 13.2 °C 1013.8 hPa NW 9.7 km/h 12.9 km/h 62% 0 mm
13:47 20.8 °C 12.8 °C 1013.8 hPa WNW 8 km/h 12.9 km/h 60% 0 mm
13:52 21.2 °C 12.7 °C 1013.8 hPa NNE 4.8 km/h 14.5 km/h 58% 0 mm
13:57 21.3 °C 13.3 °C 1013.8 hPa North 9.7 km/h 12.9 km/h 60% 0 mm
14:02 21.4 °C 13.4 °C 1013.8 hPa North 6.4 km/h 16.1 km/h 60% 0 mm
14:07 21.4 °C 13.6 °C 1013.8 hPa NNE 9.7 km/h 14.5 km/h 61% 0 mm
14:12 21.6 °C 13.3 °C 1013.8 hPa NNW 8 km/h 12.9 km/h 59% 0 mm
14:17 21.9 °C 13.5 °C 1013.4 hPa NW 12.9 km/h 14.5 km/h 59% 0 mm
14:22 21.9 °C 13.5 °C 1013.4 hPa North 8 km/h 11.3 km/h 59% 0 mm
14:27 21.5 °C 12.3 °C 1013.4 hPa North 6.4 km/h 8 km/h 56% 0 mm
14:32 21.4 °C 13.4 °C 1013.4 hPa WNW 9.7 km/h 9.7 km/h 60% 0 mm
14:38 21.4 °C 13.1 °C 1013.4 hPa NW 6.4 km/h 11.3 km/h 59% 0 mm
14:43 21.2 °C 13.1 °C 1013.4 hPa North 8 km/h 9.7 km/h 60% 0 mm
14:48 21.1 °C 12.7 °C 1013.4 hPa NNW 6.4 km/h 12.9 km/h 59% 0 mm
14:53 21.2 °C 13.3 °C 1013.4 hPa NNE 11.3 km/h 11.3 km/h 61% 0 mm
14:55 21.1 °C 12.3 °C 1013.4 hPa NW 6.4 km/h 14.5 km/h 57% 0 mm
15:00 21.1 °C 13 °C 1013.1 hPa NNW 8 km/h 8 km/h 60% 0 mm
15:05 21 °C 12.7 °C 1013.1 hPa WNW 8 km/h 9.7 km/h 59% 0 mm
15:10 21.2 °C 13.2 °C 1013.1 hPa NNW 4.8 km/h 12.9 km/h 60% 0 mm
15:15 21.7 °C 13.1 °C 1013.1 hPa WNW 9.7 km/h 11.3 km/h 58% 0 mm
15:20 22 °C 13.4 °C 1013.1 hPa North 6.4 km/h 9.7 km/h 58% 0 mm
15:25 22 °C 12.8 °C 1013.1 hPa NNW 4.8 km/h 12.9 km/h 56% 0 mm
15:30 22.3 °C 13.9 °C 1013.1 hPa NNW 9.7 km/h 9.7 km/h 59% 0 mm
15:35 22.3 °C 13.1 °C 1013.1 hPa WNW 6.4 km/h 14.5 km/h 56% 0 mm
15:36 22.3 °C 12.8 °C 1012.8 hPa West 9.7 km/h 17.7 km/h 55% 0 mm
15:41 22.1 °C 13.2 °C 1012.8 hPa NW 8 km/h 11.3 km/h 57% 0 mm
15:47 21.9 °C 13 °C 1012.8 hPa NNW 8 km/h 12.9 km/h 57% 0 mm
15:52 21.8 °C 12.9 °C 1012.8 hPa NW 3.2 km/h 4.8 km/h 57% 0 mm
15:57 22.6 °C 13.3 °C 1012.8 hPa WNW 6.4 km/h 11.3 km/h 56% 0 mm
16:02 22.6 °C 12.5 °C 1012.8 hPa WNW 8 km/h 14.5 km/h 53% 0 mm
16:07 22.4 °C 12.3 °C 1012.8 hPa NNW 4.8 km/h 12.9 km/h 53% 0 mm
16:08 22.3 °C 12.3 °C 1012.8 hPa NW 4.8 km/h 12.9 km/h 53% 0 mm
16:13 22.6 °C 14.2 °C 1012.8 hPa NNW 6.4 km/h 19.3 km/h 59% 0 mm
16:18 22.4 °C 12.1 °C 1012.8 hPa NW 9.7 km/h 19.3 km/h 52% 0 mm
16:23 22.3 °C 12.8 °C 1012.8 hPa NNE 9.7 km/h 16.1 km/h 55% 0 mm
16:28 22.6 °C 13.1 °C 1012.8 hPa NW 6.4 km/h 17.7 km/h 55% 0 mm
16:34 22.9 °C 13.7 °C 1012.8 hPa WNW 4.8 km/h 11.3 km/h 56% 0 mm
16:39 22.6 °C 12.6 °C 1012.8 hPa NE 6.4 km/h 8 km/h 53% 0 mm
16:44 22.2 °C 12.5 °C 1012.8 hPa NW 9.7 km/h 12.9 km/h 54% 0 mm
16:49 22.2 °C 13.3 °C 1012.8 hPa WNW 9.7 km/h 16.1 km/h 57% 0 mm
16:54 22.9 °C 13.1 °C 1012.8 hPa NW 14.5 km/h 14.5 km/h 54% 0 mm
16:59 22.6 °C 12.3 °C 1012.8 hPa North 16.1 km/h 17.7 km/h 52% 0 mm
17:04 22.1 °C 12.4 °C 1012.8 hPa NW 12.9 km/h 14.5 km/h 54% 0 mm
17:09 22.2 °C 13.1 °C 1012.8 hPa NW 11.3 km/h 16.1 km/h 56% 0 mm
17:14 22.6 °C 12.8 °C 1012.8 hPa NNE 11.3 km/h 16.1 km/h 54% 0 mm
17:19 22.8 °C 13 °C 1012.8 hPa NNW 9.7 km/h 16.1 km/h 54% 0 mm
17:24 23.1 °C 13.8 °C 1012.8 hPa NNW 14.5 km/h 14.5 km/h 56% 0 mm
17:29 22.6 °C 12.6 °C 1012.8 hPa NW 11.3 km/h 16.1 km/h 53% 0 mm
17:34 22.6 °C 12.8 °C 1012.8 hPa NNW 9.7 km/h 9.7 km/h 54% 0 mm
17:39 22.2 °C 12.8 °C 1012.8 hPa North 8 km/h 11.3 km/h 55% 0 mm
17:44 21.8 °C 12.7 °C 1012.8 hPa NNW 4.8 km/h 9.7 km/h 56% 0 mm
17:49 21.6 °C 12.7 °C 1012.8 hPa North 12.9 km/h 12.9 km/h 57% 0 mm
17:54 21.9 °C 13 °C 1012.8 hPa North 11.3 km/h 11.3 km/h 57% 0 mm
17:59 22.4 °C 12.9 °C 1012.8 hPa NNE 12.9 km/h 16.1 km/h 55% 0 mm
18:04 22.7 °C 13.2 °C 1012.8 hPa NNE 8 km/h 17.7 km/h 55% 0 mm
18:09 22.6 °C 13.4 °C 1012.8 hPa North 8 km/h 12.9 km/h 56% 0 mm
18:14 22.7 °C 13.5 °C 1012.8 hPa NE 12.9 km/h 12.9 km/h 56% 0 mm
18:19 22.6 °C 13.1 °C 1012.8 hPa North 11.3 km/h 16.1 km/h 55% 0 mm
18:24 22.1 °C 12.9 °C 1013.1 hPa North 6.4 km/h 12.9 km/h 56% 0 mm
18:29 21.9 °C 13 °C 1013.1 hPa NNE 9.7 km/h 12.9 km/h 57% 0 mm
18:34 22 °C 13.4 °C 1013.1 hPa NNE 9.7 km/h 12.9 km/h 58% 0 mm
18:39 22.1 °C 13.2 °C 1013.1 hPa NE 14.5 km/h 14.5 km/h 57% 0 mm
18:45 21.8 °C 12.9 °C 1013.1 hPa NNE 9.7 km/h 16.1 km/h 57% 0 mm
18:50 21.8 °C 13.2 °C 1013.1 hPa North 6.4 km/h 9.7 km/h 58% 0 mm
18:55 21.9 °C 13.1 °C 1013.1 hPa North 4.8 km/h 8 km/h 57% 0 mm
19:00 21.9 °C 13 °C 1013.1 hPa North 8 km/h 9.7 km/h 57% 0 mm
19:05 21.8 °C 13.2 °C 1013.1 hPa North 8 km/h 8 km/h 58% 0 mm
19:10 21.5 °C 12.9 °C 1013.1 hPa NNW 6.4 km/h 9.7 km/h 58% 0 mm
19:15 21.3 °C 13 °C 1013.1 hPa NNE 3.2 km/h 11.3 km/h 59% 0 mm
19:16 21.3 °C 13 °C 1013.1 hPa NNW 4.8 km/h 11.3 km/h 59% 0 mm
19:21 21.3 °C 12.7 °C 1013.1 hPa North 8 km/h 8 km/h 58% 0 mm
19:26 21.3 °C 13.2 °C 1013.1 hPa North 1.6 km/h 4.8 km/h 60% 0 mm
19:31 21.2 °C 13.1 °C 1013.1 hPa North 3.2 km/h 4.8 km/h 60% 0 mm
19:36 20.9 °C 13.2 °C 1013.1 hPa North 3.2 km/h 6.4 km/h 61% 0 mm
19:41 20.7 °C 12.9 °C 1013.4 hPa North 3.2 km/h 6.4 km/h 61% 0 mm
19:46 20.5 °C 12.7 °C 1013.4 hPa NW 1.6 km/h 4.8 km/h 61% 0 mm
19:51 20.2 °C 12.7 °C 1013.1 hPa NNW 3.2 km/h 6.4 km/h 62% 0 mm
19:56 20 °C 12.8 °C 1013.4 hPa North 3.2 km/h 6.4 km/h 63% 0 mm
20:01 19.8 °C 12.6 °C 1013.4 hPa NNE 4.8 km/h 4.8 km/h 63% 0 mm
20:06 19.7 °C 12.4 °C 1013.4 hPa NNW 4.8 km/h 4.8 km/h 63% 0 mm
20:11 19.6 °C 12.4 °C 1013.4 hPa NNW 3.2 km/h 4.8 km/h 63% 0 mm
20:17 19.5 °C 12.3 °C 1013.4 hPa NNW 3.2 km/h 6.4 km/h 63% 0 mm
20:22 19.4 °C 12.2 °C 1013.4 hPa NNW 3.2 km/h 3.2 km/h 63% 0 mm
20:27 19.2 °C 12.3 °C 1013.4 hPa North 3.2 km/h 6.4 km/h 64% 0 mm
20:32 19.1 °C 12.1 °C 1013.4 hPa NNW 3.2 km/h 3.2 km/h 64% 0 mm
20:37 18.9 °C 12.2 °C 1013.8 hPa North 1.6 km/h 4.8 km/h 65% 0 mm
20:42 18.8 °C 12.1 °C 1013.8 hPa North 4.8 km/h 4.8 km/h 65% 0 mm
20:47 18.7 °C 12 °C 1013.8 hPa NNW 3.2 km/h 6.4 km/h 65% 0 mm
20:52 18.7 °C 12 °C 1013.8 hPa NNW 4.8 km/h 4.8 km/h 65% 0 mm
20:57 18.7 °C 11.9 °C 1014.1 hPa North 3.2 km/h 6.4 km/h 65% 0 mm
21:02 18.4 °C 12 °C 1013.8 hPa NNW 3.2 km/h 4.8 km/h 66% 0 mm
21:07 18.3 °C 11.9 °C 1014.1 hPa North 3.2 km/h 6.4 km/h 66% 0 mm
21:12 18.2 °C 12 °C 1014.1 hPa NNW 6.4 km/h 6.4 km/h 67% 0 mm
21:17 18.2 °C 11.9 °C 1014.1 hPa NNW 3.2 km/h 4.8 km/h 67% 0 mm
21:22 18.1 °C 12.1 °C 1014.1 hPa NNW 6.4 km/h 6.4 km/h 68% 0 mm
21:27 17.7 °C 11.9 °C 1014.4 hPa NNE 1.6 km/h 4.8 km/h 69% 0 mm
21:32 17.6 °C 12.1 °C 1014.4 hPa North 6.4 km/h 8 km/h 70% 0 mm
21:37 17.6 °C 12.1 °C 1014.4 hPa North 6.4 km/h 9.7 km/h 70% 0 mm
21:42 17.5 °C 11.9 °C 1014.8 hPa NNW 4.8 km/h 9.7 km/h 70% 0 mm
21:47 17.4 °C 11.9 °C 1014.8 hPa NNW 9.7 km/h 11.3 km/h 70% 0 mm
21:53 17.3 °C 12.1 °C 1014.8 hPa NNE 9.7 km/h 9.7 km/h 71% 0 mm
21:58 17.1 °C 12.2 °C 1014.8 hPa North 8 km/h 11.3 km/h 73% 0 mm
22:03 16.9 °C 12.2 °C 1014.8 hPa NNW 6.4 km/h 8 km/h 74% 0 mm
22:08 16.8 °C 12.3 °C 1014.8 hPa NNW 6.4 km/h 11.3 km/h 75% 0 mm
22:14 16.7 °C 12.4 °C 1015.1 hPa NW 8 km/h 9.7 km/h 76% 0 mm
22:19 16.7 °C 12.4 °C 1015.1 hPa North 4.8 km/h 14.5 km/h 76% 0 mm
22:24 16.6 °C 12.4 °C 1015.1 hPa NNW 9.7 km/h 12.9 km/h 76% 0 mm
22:29 16.6 °C 12.5 °C 1015.5 hPa NNW 11.3 km/h 17.7 km/h 77% 0 mm
22:34 16.6 °C 12.5 °C 1015.5 hPa NNW 6.4 km/h 11.3 km/h 77% 0 mm
22:39 16.5 °C 12.4 °C 1015.5 hPa North 8 km/h 14.5 km/h 77% 0 mm
22:44 16.4 °C 12.4 °C 1015.5 hPa North 6.4 km/h 17.7 km/h 77% 0 mm
22:49 16.3 °C 12.3 °C 1015.5 hPa North 9.7 km/h 14.5 km/h 77% 0 mm
22:54 16.2 °C 12.2 °C 1015.5 hPa NNW 6.4 km/h 11.3 km/h 77% 0 mm
22:59 16.1 °C 12.3 °C 1015.8 hPa NNE 6.4 km/h 11.3 km/h 78% 0 mm
23:04 16 °C 12.2 °C 1015.8 hPa North 6.4 km/h 6.4 km/h 78% 0 mm
23:09 15.8 °C 12.2 °C 1015.8 hPa NNE 4.8 km/h 9.7 km/h 79% 0 mm
23:15 15.7 °C 12.1 °C 1015.8 hPa NNW 6.4 km/h 6.4 km/h 79% 0 mm
23:20 15.5 °C 12.1 °C 1015.8 hPa North 3.2 km/h 6.4 km/h 80% 0 mm
23:25 15.3 °C 11.9 °C 1015.8 hPa North 4.8 km/h 6.4 km/h 80% 0 mm
23:30 15.2 °C 11.9 °C 1015.8 hPa NNW 3.2 km/h 6.4 km/h 81% 0 mm
23:35 15.1 °C 11.9 °C 1015.8 hPa NNE 4.8 km/h 6.4 km/h 81% 0 mm
23:40 15.1 °C 11.8 °C 1015.8 hPa NNW 4.8 km/h 6.4 km/h 81% 0 mm
23:45 15 °C 11.9 °C 1015.8 hPa NNE 3.2 km/h 4.8 km/h 82% 0 mm
23:46 15 °C 11.9 °C 1015.8 hPa North 3.2 km/h 4.8 km/h 82% 0 mm
23:51 14.8 °C 11.8 °C 1015.8 hPa North 1.6 km/h 4.8 km/h 82% 0 mm
23:56 14.8 °C 11.7 °C 1015.8 hPa North 3.2 km/h 4.8 km/h 82% 0 mm
Compliments of Weather Underground